sensor_id;sensor_type;location;lat;lon;timestamp;pressure;altitude;pressure_sealevel;temperature;humidity
5812;BME280;2932;52.400;9.558;2022-12-07T00:00:37;100789.94;;;6.71;86.12
5812;BME280;2932;52.400;9.558;2022-12-07T00:03:03;100783.84;;;6.51;85.72
5812;BME280;2932;52.400;9.558;2022-12-07T00:05:29;100784.13;;;6.72;85.33
5812;BME280;2932;52.400;9.558;2022-12-07T00:07:54;100776.53;;;6.47;85.65
5812;BME280;2932;52.400;9.558;2022-12-07T00:10:20;100769.25;;;6.73;85.77
5812;BME280;2932;52.400;9.558;2022-12-07T00:12:45;100761.41;;;6.58;85.29
5812;BME280;2932;52.400;9.558;2022-12-07T00:15:10;100754.47;;;6.60;85.34
5812;BME280;2932;52.400;9.558;2022-12-07T00:17:35;100752.06;;;6.67;84.89
5812;BME280;2932;52.400;9.558;2022-12-07T00:20:01;100750.03;;;6.51;85.61
5812;BME280;2932;52.400;9.558;2022-12-07T00:22:26;100749.47;;;6.62;85.49
5812;BME280;2932;52.400;9.558;2022-12-07T00:24:51;100751.97;;;6.50;85.77
5812;BME280;2932;52.400;9.558;2022-12-07T00:27:17;100736.13;;;6.47;86.12
5812;BME280;2932;52.400;9.558;2022-12-07T00:29:42;100749.03;;;6.47;86.64
5812;BME280;2932;52.400;9.558;2022-12-07T00:32:07;100745.63;;;6.41;86.07
5812;BME280;2932;52.400;9.558;2022-12-07T00:34:33;100736.16;;;6.56;85.94
5812;BME280;2932;52.400;9.558;2022-12-07T00:36:58;100728.97;;;6.38;86.25
5812;BME280;2932;52.400;9.558;2022-12-07T00:39:23;100736.16;;;6.56;86.22
5812;BME280;2932;52.400;9.558;2022-12-07T00:41:48;100734.91;;;6.62;86.67
5812;BME280;2932;52.400;9.558;2022-12-07T00:44:14;100743.22;;;6.40;86.59
5812;BME280;2932;52.400;9.558;2022-12-07T00:46:39;100734.38;;;6.51;86.56
5812;BME280;2932;52.400;9.558;2022-12-07T00:49:05;100734.97;;;6.40;86.57
5812;BME280;2932;52.400;9.558;2022-12-07T00:51:30;100731.41;;;6.39;87.46
5812;BME280;2932;52.400;9.558;2022-12-07T00:53:55;100733.66;;;6.37;87.05
5812;BME280;2932;52.400;9.558;2022-12-07T00:56:26;100726.88;;;6.43;87.25
5812;BME280;2932;52.400;9.558;2022-12-07T00:58:54;100719.13;;;6.45;86.80
5812;BME280;2932;52.400;9.558;2022-12-07T01:01:21;100717.38;;;6.49;87.16
5812;BME280;2932;52.400;9.558;2022-12-07T01:03:46;100719.78;;;6.90;85.95
5812;BME280;2932;52.400;9.558;2022-12-07T01:06:16;100722.16;;;6.66;86.23
5812;BME280;2932;52.400;9.558;2022-12-07T01:08:43;100721.69;;;6.73;85.99
5812;BME280;2932;52.400;9.558;2022-12-07T01:11:12;100720.25;;;6.75;86.26
5812;BME280;2932;52.400;9.558;2022-12-07T01:13:38;100724.59;;;6.67;86.58
5812;BME280;2932;52.400;9.558;2022-12-07T01:16:05;100720.63;;;6.51;86.80
5812;BME280;2932;52.400;9.558;2022-12-07T01:18:33;100724.72;;;6.62;86.76
5812;BME280;2932;52.400;9.558;2022-12-07T01:21:07;100729.31;;;6.76;86.55
5812;BME280;2932;52.400;9.558;2022-12-07T01:23:35;100728.31;;;6.72;86.30
5812;BME280;2932;52.400;9.558;2022-12-07T01:26:04;100735.13;;;6.74;86.46
5812;BME280;2932;52.400;9.558;2022-12-07T01:28:30;100724.50;;;6.50;86.63
5812;BME280;2932;52.400;9.558;2022-12-07T01:33:21;100726.53;;;6.67;86.84
5812;BME280;2932;52.400;9.558;2022-12-07T01:35:46;100718.81;;;6.38;87.68
5812;BME280;2932;52.400;9.558;2022-12-07T01:38:12;100717.25;;;6.23;88.32
5812;BME280;2932;52.400;9.558;2022-12-07T01:40:37;100713.31;;;6.47;87.99
5812;BME280;2932;52.400;9.558;2022-12-07T01:43:04;100705.78;;;6.61;87.29
5812;BME280;2932;52.400;9.558;2022-12-07T01:45:40;100710.97;;;6.62;86.79
5812;BME280;2932;52.400;9.558;2022-12-07T01:48:07;100703.53;;;6.23;88.16
5812;BME280;2932;52.400;9.558;2022-12-07T01:50:35;100708.25;;;6.31;88.55
5812;BME280;2932;52.400;9.558;2022-12-07T01:53:03;100700.84;;;6.10;88.68
5812;BME280;2932;52.400;9.558;2022-12-07T01:55:30;100710.28;;;6.17;88.72
5812;BME280;2932;52.400;9.558;2022-12-07T01:57:56;100705.94;;;6.25;88.83
5812;BME280;2932;52.400;9.558;2022-12-07T02:00:21;100712.19;;;6.48;87.62
5812;BME280;2932;52.400;9.558;2022-12-07T02:05:22;100704.09;;;6.43;87.51
5812;BME280;2932;52.400;9.558;2022-12-07T02:07:49;100701.91;;;6.62;86.62
5812;BME280;2932;52.400;9.558;2022-12-07T02:10:21;100700.72;;;6.46;87.26
5812;BME280;2932;52.400;9.558;2022-12-07T02:12:54;100697.47;;;6.44;86.97
5812;BME280;2932;52.400;9.558;2022-12-07T02:15:22;100695.53;;;6.44;87.10
5812;BME280;2932;52.400;9.558;2022-12-07T02:18:13;100692.69;;;6.58;86.34
5812;BME280;2932;52.400;9.558;2022-12-07T02:26:32;100685.50;;;6.40;86.41
5812;BME280;2932;52.400;9.558;2022-12-07T02:31:54;100688.03;;;6.27;86.31
5812;BME280;2932;52.400;9.558;2022-12-07T02:37:19;100681.41;;;6.28;85.96
5812;BME280;2932;52.400;9.558;2022-12-07T02:39:54;100681.78;;;6.35;86.08
5812;BME280;2932;52.400;9.558;2022-12-07T02:42:28;100685.66;;;6.34;85.84
5812;BME280;2932;52.400;9.558;2022-12-07T02:44:56;100675.81;;;6.11;86.33
5812;BME280;2932;52.400;9.558;2022-12-07T02:47:23;100678.88;;;6.10;86.42
5812;BME280;2932;52.400;9.558;2022-12-07T02:49:50;100684.06;;;6.11;86.43
5812;BME280;2932;52.400;9.558;2022-12-07T02:52:16;100678.16;;;6.26;86.57
5812;BME280;2932;52.400;9.558;2022-12-07T02:54:41;100678.19;;;6.04;86.35
5812;BME280;2932;52.400;9.558;2022-12-07T03:12:45;100674.63;;;6.03;86.93
5812;BME280;2932;52.400;9.558;2022-12-07T03:15:26;100680.53;;;6.19;86.61
5812;BME280;2932;52.400;9.558;2022-12-07T03:17:53;100661.91;;;6.08;86.72
5812;BME280;2932;52.400;9.558;2022-12-07T03:20:22;100659.06;;;5.90;87.01
5812;BME280;2932;52.400;9.558;2022-12-07T03:22:50;100665.56;;;6.25;86.34
5812;BME280;2932;52.400;9.558;2022-12-07T03:25:18;100657.22;;;6.08;86.46
5812;BME280;2932;52.400;9.558;2022-12-07T03:27:59;100657.97;;;6.00;86.57
5812;BME280;2932;52.400;9.558;2022-12-07T03:31:14;100652.47;;;6.00;87.21
5812;BME280;2932;52.400;9.558;2022-12-07T03:33:31;100652.38;;;5.83;87.81
5812;BME280;2932;52.400;9.558;2022-12-07T03:36:08;100645.66;;;5.89;87.35
5812;BME280;2932;52.400;9.558;2022-12-07T03:38:44;100660.56;;;5.96;87.14
5812;BME280;2932;52.400;9.558;2022-12-07T03:41:16;100654.69;;;6.20;85.91
5812;BME280;2932;52.400;9.558;2022-12-07T03:43:44;100655.72;;;6.02;86.24
5812;BME280;2932;52.400;9.558;2022-12-07T03:55:08;100662.06;;;6.11;85.34
5812;BME280;2932;52.400;9.558;2022-12-07T03:57:36;100665.00;;;6.15;85.85
5812;BME280;2932;52.400;9.558;2022-12-07T04:00:04;100669.06;;;6.17;85.47
5812;BME280;2932;52.400;9.558;2022-12-07T04:02:31;100672.38;;;6.06;85.67
5812;BME280;2932;52.400;9.558;2022-12-07T04:04:57;100676.22;;;6.27;85.36
5812;BME280;2932;52.400;9.558;2022-12-07T04:07:22;100663.97;;;6.02;85.70
5812;BME280;2932;52.400;9.558;2022-12-07T04:09:48;100667.53;;;5.80;86.18
5812;BME280;2932;52.400;9.558;2022-12-07T04:12:13;100669.31;;;6.07;85.65
5812;BME280;2932;52.400;9.558;2022-12-07T04:14:38;100670.00;;;6.13;85.47
5812;BME280;2932;52.400;9.558;2022-12-07T04:17:04;100667.91;;;5.87;85.70
5812;BME280;2932;52.400;9.558;2022-12-07T04:19:31;100670.25;;;5.94;85.80
5812;BME280;2932;52.400;9.558;2022-12-07T04:21:58;100669.75;;;5.92;85.95
5812;BME280;2932;52.400;9.558;2022-12-07T04:24:24;100664.25;;;5.92;86.10
5812;BME280;2932;52.400;9.558;2022-12-07T04:26:50;100661.81;;;5.90;85.84
5812;BME280;2932;52.400;9.558;2022-12-07T04:29:16;100652.38;;;5.83;85.73
5812;BME280;2932;52.400;9.558;2022-12-07T04:31:42;100663.06;;;6.15;85.02
5812;BME280;2932;52.400;9.558;2022-12-07T04:34:08;100663.25;;;6.19;84.59
5812;BME280;2932;52.400;9.558;2022-12-07T04:36:34;100666.19;;;5.91;84.65
5812;BME280;2932;52.400;9.558;2022-12-07T04:39:00;100661.91;;;6.08;84.62
5812;BME280;2932;52.400;9.558;2022-12-07T04:41:26;100672.34;;;5.97;84.66
5812;BME280;2932;52.400;9.558;2022-12-07T04:43:59;100662.47;;;5.74;85.02
5812;BME280;2932;52.400;9.558;2022-12-07T04:46:25;100667.72;;;5.84;84.83
5812;BME280;2932;52.400;9.558;2022-12-07T04:48:52;100651.56;;;5.60;85.53
5812;BME280;2932;52.400;9.558;2022-12-07T04:51:23;100651.63;;;5.68;85.28
5812;BME280;2932;52.400;9.558;2022-12-07T04:53:49;100647.84;;;5.56;85.76
5812;BME280;2932;52.400;9.558;2022-12-07T04:56:15;100642.28;;;5.47;85.46
5812;BME280;2932;52.400;9.558;2022-12-07T04:58:42;100647.38;;;5.62;85.18
5812;BME280;2932;52.400;9.558;2022-12-07T05:01:08;100644.69;;;5.71;84.94
5812;BME280;2932;52.400;9.558;2022-12-07T05:03:34;100645.63;;;5.66;84.94
5812;BME280;2932;52.400;9.558;2022-12-07T05:06:00;100642.75;;;5.72;85.02
5812;BME280;2932;52.400;9.558;2022-12-07T05:08:25;100651.25;;;5.84;84.41
5812;BME280;2932;52.400;9.558;2022-12-07T05:10:51;100651.44;;;5.87;83.91
5812;BME280;2932;52.400;9.558;2022-12-07T05:13:16;100649.75;;;5.78;84.01
5812;BME280;2932;52.400;9.558;2022-12-07T05:15:41;100651.50;;;5.96;83.74
5812;BME280;2932;52.400;9.558;2022-12-07T05:18:09;100652.88;;;5.85;83.74
5812;BME280;2932;52.400;9.558;2022-12-07T05:20:34;100653.38;;;5.87;83.56
5812;BME280;2932;52.400;9.558;2022-12-07T05:22:59;100648.28;;;5.94;83.33
5812;BME280;2932;52.400;9.558;2022-12-07T05:25:25;100655.59;;;5.85;83.72
5812;BME280;2932;52.400;9.558;2022-12-07T05:27:50;100659.16;;;5.85;83.48
5812;BME280;2932;52.400;9.558;2022-12-07T05:30:16;100653.94;;;5.53;84.00
5812;BME280;2932;52.400;9.558;2022-12-07T05:32:41;100656.28;;;5.68;84.03
5812;BME280;2932;52.400;9.558;2022-12-07T05:35:07;100660.59;;;5.83;83.68
5812;BME280;2932;52.400;9.558;2022-12-07T05:37:33;100656.41;;;5.85;83.27
5812;BME280;2932;52.400;9.558;2022-12-07T05:39:58;100654.41;;;5.77;83.41
5812;BME280;2932;52.400;9.558;2022-12-07T05:42:23;100661.28;;;5.88;83.34
5812;BME280;2932;52.400;9.558;2022-12-07T05:44:49;100654.63;;;5.81;83.52
5812;BME280;2932;52.400;9.558;2022-12-07T05:47:15;100660.47;;;5.88;83.45
5812;BME280;2932;52.400;9.558;2022-12-07T05:49:40;100655.41;;;5.81;84.00
5812;BME280;2932;52.400;9.558;2022-12-07T05:52:06;100658.16;;;5.81;83.43
5812;BME280;2932;52.400;9.558;2022-12-07T05:54:31;100656.50;;;5.94;82.87
5812;BME280;2932;52.400;9.558;2022-12-07T05:56:57;100658.47;;;5.80;83.13
5812;BME280;2932;52.400;9.558;2022-12-07T05:59:23;100661.13;;;6.16;82.84
5812;BME280;2932;52.400;9.558;2022-12-07T06:01:51;100650.47;;;6.14;82.07
5812;BME280;2932;52.400;9.558;2022-12-07T06:04:17;100652.72;;;6.12;81.73
5812;BME280;2932;52.400;9.558;2022-12-07T06:06:43;100651.75;;;5.86;81.99
5812;BME280;2932;52.400;9.558;2022-12-07T06:09:08;100644.00;;;5.88;82.52
5812;BME280;2932;52.400;9.558;2022-12-07T06:11:34;100646.66;;;5.93;82.69
5812;BME280;2932;52.400;9.558;2022-12-07T06:14:18;100651.91;;;6.12;81.80
5812;BME280;2932;52.400;9.558;2022-12-07T06:16:44;100648.59;;;5.92;82.27
5812;BME280;2932;52.400;9.558;2022-12-07T06:19:09;100649.88;;;5.73;82.80
5812;BME280;2932;52.400;9.558;2022-12-07T06:21:34;100656.38;;;5.99;82.46
5812;BME280;2932;52.400;9.558;2022-12-07T06:24:00;100654.88;;;5.93;82.01
5812;BME280;2932;52.400;9.558;2022-12-07T06:26:25;100654.78;;;5.84;82.20
5812;BME280;2932;52.400;9.558;2022-12-07T06:28:50;100650.56;;;5.78;82.15
5812;BME280;2932;52.400;9.558;2022-12-07T06:31:16;100656.84;;;6.01;81.99
5812;BME280;2932;52.400;9.558;2022-12-07T06:33:41;100659.16;;;5.85;82.12
5812;BME280;2932;52.400;9.558;2022-12-07T06:36:08;100643.28;;;5.96;82.07
5812;BME280;2932;52.400;9.558;2022-12-07T06:38:33;100655.53;;;5.76;82.24
5812;BME280;2932;52.400;9.558;2022-12-07T06:40:58;100657.19;;;5.99;81.93
5812;BME280;2932;52.400;9.558;2022-12-07T06:43:24;100660.78;;;6.09;81.45
5812;BME280;2932;52.400;9.558;2022-12-07T06:45:49;100648.28;;;6.02;81.05
5812;BME280;2932;52.400;9.558;2022-12-07T06:48:15;100652.16;;;6.01;81.29
5812;BME280;2932;52.400;9.558;2022-12-07T06:50:41;100651.69;;;5.55;82.12
5812;BME280;2932;52.400;9.558;2022-12-07T06:53:09;100647.00;;;5.78;82.08
5812;BME280;2932;52.400;9.558;2022-12-07T06:55:34;100653.34;;;5.64;82.23
5812;BME280;2932;52.400;9.558;2022-12-07T06:57:59;100654.28;;;5.82;81.91
5812;BME280;2932;52.400;9.558;2022-12-07T07:00:26;100654.88;;;5.48;82.33
5812;BME280;2932;52.400;9.558;2022-12-07T07:02:52;100655.59;;;5.62;83.00
5812;BME280;2932;52.400;9.558;2022-12-07T07:05:17;100653.34;;;5.64;82.43
5812;BME280;2932;52.400;9.558;2022-12-07T07:07:42;100653.97;;;5.61;82.37
5812;BME280;2932;52.400;9.558;2022-12-07T07:10:08;100655.28;;;5.64;82.22
5812;BME280;2932;52.400;9.558;2022-12-07T07:12:33;100656.50;;;5.49;82.66
5812;BME280;2932;52.400;9.558;2022-12-07T07:14:59;100660.59;;;5.60;82.07
5812;BME280;2932;52.400;9.558;2022-12-07T07:17:24;100658.91;;;5.73;81.88
5812;BME280;2932;52.400;9.558;2022-12-07T07:19:49;100653.38;;;5.42;82.63
5812;BME280;2932;52.400;9.558;2022-12-07T07:22:15;100659.16;;;5.41;82.84
5812;BME280;2932;52.400;9.558;2022-12-07T07:24:40;100666.34;;;5.50;82.30
5812;BME280;2932;52.400;9.558;2022-12-07T07:27:08;100673.66;;;5.55;82.83
5812;BME280;2932;52.400;9.558;2022-12-07T07:29:34;100675.19;;;5.69;82.30
5812;BME280;2932;52.400;9.558;2022-12-07T07:31:59;100676.00;;;5.70;81.84
5812;BME280;2932;52.400;9.558;2022-12-07T07:34:25;100682.81;;;5.73;81.97
5812;BME280;2932;52.400;9.558;2022-12-07T07:36:50;100678.22;;;5.59;82.46
5812;BME280;2932;52.400;9.558;2022-12-07T07:39:15;100683.47;;;5.92;81.87
5812;BME280;2932;52.400;9.558;2022-12-07T07:41:41;100676.00;;;5.70;81.71
5812;BME280;2932;52.400;9.558;2022-12-07T07:44:06;100674.28;;;5.52;81.85
5812;BME280;2932;52.400;9.558;2022-12-07T07:46:31;100686.13;;;5.83;81.72
5812;BME280;2932;52.400;9.558;2022-12-07T07:48:58;100684.63;;;5.77;81.72
5812;BME280;2932;52.400;9.558;2022-12-07T07:51:23;100674.69;;;5.67;81.75
5812;BME280;2932;52.400;9.558;2022-12-07T07:53:48;100677.63;;;5.71;82.13
5812;BME280;2932;52.400;9.558;2022-12-07T07:56:14;100679.69;;;5.65;82.32
5812;BME280;2932;52.400;9.558;2022-12-07T07:58:39;100680.69;;;5.69;82.63
5812;BME280;2932;52.400;9.558;2022-12-07T08:01:06;100675.47;;;5.59;82.94
5812;BME280;2932;52.400;9.558;2022-12-07T08:03:32;100686.94;;;5.84;81.91
5812;BME280;2932;52.400;9.558;2022-12-07T08:05:57;100678.88;;;5.65;82.46
5812;BME280;2932;52.400;9.558;2022-12-07T08:08:22;100684.25;;;5.70;81.85
5812;BME280;2932;52.400;9.558;2022-12-07T08:10:47;100679.56;;;5.70;82.23
5812;BME280;2932;52.400;9.558;2022-12-07T08:13:15;100682.94;;;5.67;82.57
5812;BME280;2932;52.400;9.558;2022-12-07T08:15:47;100685.25;;;5.74;82.36
5812;BME280;2932;52.400;9.558;2022-12-07T08:18:13;100692.22;;;5.94;82.21
5812;BME280;2932;52.400;9.558;2022-12-07T08:20:40;100685.41;;;5.91;82.21
5812;BME280;2932;52.400;9.558;2022-12-07T08:23:06;100685.75;;;5.76;82.71
5812;BME280;2932;52.400;9.558;2022-12-07T08:25:32;100689.97;;;5.96;82.04
5812;BME280;2932;52.400;9.558;2022-12-07T08:27:58;100683.50;;;5.56;82.94
5812;BME280;2932;52.400;9.558;2022-12-07T08:30:24;100687.13;;;5.87;82.64
5812;BME280;2932;52.400;9.558;2022-12-07T08:32:49;100691.59;;;6.06;82.25
5812;BME280;2932;52.400;9.558;2022-12-07T08:35:15;100698.50;;;5.94;82.35
5812;BME280;2932;52.400;9.558;2022-12-07T08:37:41;100691.84;;;5.73;82.57
5812;BME280;2932;52.400;9.558;2022-12-07T08:40:08;100695.94;;;5.98;82.41
5812;BME280;2932;52.400;9.558;2022-12-07T08:42:34;100682.31;;;5.70;82.60
5812;BME280;2932;52.400;9.558;2022-12-07T08:45:07;100700.56;;;5.89;82.56
5812;BME280;2932;52.400;9.558;2022-12-07T08:47:35;100684.69;;;5.86;82.10
5812;BME280;2932;52.400;9.558;2022-12-07T08:50:01;100693.91;;;6.12;81.82
5812;BME280;2932;52.400;9.558;2022-12-07T08:52:29;100691.59;;;5.97;81.88
5812;BME280;2932;52.400;9.558;2022-12-07T08:54:55;100696.47;;;6.09;82.02
5812;BME280;2932;52.400;9.558;2022-12-07T08:57:21;100696.28;;;5.83;82.00
5812;BME280;2932;52.400;9.558;2022-12-07T08:59:46;100698.00;;;5.92;82.06
5812;BME280;2932;52.400;9.558;2022-12-07T09:02:12;100687.72;;;5.98;81.69
5812;BME280;2932;52.400;9.558;2022-12-07T09:04:38;100688.81;;;5.75;81.94
5812;BME280;2932;52.400;9.558;2022-12-07T09:07:03;100697.69;;;5.94;82.11
5812;BME280;2932;52.400;9.558;2022-12-07T09:09:29;100700.75;;;5.92;82.15
5812;BME280;2932;52.400;9.558;2022-12-07T09:11:55;100703.41;;;5.84;81.86
5812;BME280;2932;52.400;9.558;2022-12-07T09:14:20;100709.78;;;6.15;81.23
5812;BME280;2932;52.400;9.558;2022-12-07T09:16:52;100706.66;;;6.08;81.35
5812;BME280;2932;52.400;9.558;2022-12-07T09:19:17;100701.66;;;6.10;81.31
5812;BME280;2932;52.400;9.558;2022-12-07T09:21:43;100697.72;;;6.02;81.18
5812;BME280;2932;52.400;9.558;2022-12-07T09:24:08;100699.03;;;6.27;80.77
5812;BME280;2932;52.400;9.558;2022-12-07T09:26:34;100695.03;;;6.11;80.59
5812;BME280;2932;52.400;9.558;2022-12-07T09:29:02;100694.31;;;5.97;80.84
5812;BME280;2932;52.400;9.558;2022-12-07T09:31:27;100693.66;;;6.00;80.69
5812;BME280;2932;52.400;9.558;2022-12-07T09:33:57;100681.50;;;6.15;80.52
5812;BME280;2932;52.400;9.558;2022-12-07T09:36:24;100689.78;;;6.23;80.24
5812;BME280;2932;52.400;9.558;2022-12-07T09:38:49;100681.50;;;6.15;80.29
5812;BME280;2932;52.400;9.558;2022-12-07T09:41:15;100696.19;;;6.50;79.78
5812;BME280;2932;52.400;9.558;2022-12-07T09:43:41;100689.53;;;6.33;79.59
5812;BME280;2932;52.400;9.558;2022-12-07T09:46:12;100685.28;;;6.67;79.42
5812;BME280;2932;52.400;9.558;2022-12-07T09:48:43;100685.44;;;6.62;79.30
5812;BME280;2932;52.400;9.558;2022-12-07T09:51:18;100691.13;;;6.74;78.65
5812;BME280;2932;52.400;9.558;2022-12-07T09:53:46;100683.78;;;7.26;78.11
5812;BME280;2932;52.400;9.558;2022-12-07T09:56:19;100684.88;;;6.99;77.12
5812;BME280;2932;52.400;9.558;2022-12-07T09:58:46;100679.19;;;6.87;77.53
5812;BME280;2932;52.400;9.558;2022-12-07T10:01:16;100691.88;;;6.57;78.49
5812;BME280;2932;52.400;9.558;2022-12-07T10:06:38;100678.22;;;6.92;78.47
5812;BME280;2932;52.400;9.558;2022-12-07T10:09:10;100691.44;;;6.81;78.05
5812;BME280;2932;52.400;9.558;2022-12-07T10:14:26;100676.34;;;6.53;79.71
5812;BME280;2932;52.400;9.558;2022-12-07T10:16:52;100686.31;;;6.97;78.89
5812;BME280;2932;52.400;9.558;2022-12-07T10:22:03;100685.69;;;7.00;79.26
5812;BME280;2932;52.400;9.558;2022-12-07T10:24:30;100674.94;;;6.64;79.30
5812;BME280;2932;52.400;9.558;2022-12-07T10:26:56;100675.06;;;6.59;79.87
5812;BME280;2932;52.400;9.558;2022-12-07T10:29:32;100683.47;;;6.23;81.12
5812;BME280;2932;52.400;9.558;2022-12-07T10:32:05;100685.88;;;6.55;80.41
5812;BME280;2932;52.400;9.558;2022-12-07T10:34:38;100685.69;;;6.52;80.39
5812;BME280;2932;52.400;9.558;2022-12-07T10:37:21;100680.34;;;6.38;80.76
5812;BME280;2932;52.400;9.558;2022-12-07T10:39:55;100683.19;;;6.81;80.20
5812;BME280;2932;52.400;9.558;2022-12-07T10:42:22;100682.88;;;6.74;79.33
5812;BME280;2932;52.400;9.558;2022-12-07T10:44:50;100678.41;;;7.04;79.14
5812;BME280;2932;52.400;9.558;2022-12-07T10:58:00;100677.81;;;7.59;77.15
5812;BME280;2932;52.400;9.558;2022-12-07T11:09:04;100683.47;;;8.44;74.75
5812;BME280;2932;52.400;9.558;2022-12-07T11:11:45;100674.88;;;8.45;74.49
5812;BME280;2932;52.400;9.558;2022-12-07T11:20:40;100677.69;;;8.37;74.86
5812;BME280;2932;52.400;9.558;2022-12-07T11:23:49;100669.09;;;8.21;74.53
5812;BME280;2932;52.400;9.558;2022-12-07T11:31:38;100654.13;;;7.84;74.88
5812;BME280;2932;52.400;9.558;2022-12-07T11:34:19;100649.28;;;7.81;75.54
5812;BME280;2932;52.400;9.558;2022-12-07T11:36:51;100640.41;;;7.58;75.70
5812;BME280;2932;52.400;9.558;2022-12-07T11:39:33;100635.06;;;7.18;77.03
5812;BME280;2932;52.400;9.558;2022-12-07T11:42:09;100633.78;;;7.16;77.78
5812;BME280;2932;52.400;9.558;2022-12-07T11:50:03;100623.06;;;6.80;80.79
5812;BME280;2932;52.400;9.558;2022-12-07T12:01:18;100616.78;;;7.40;78.78
5812;BME280;2932;52.400;9.558;2022-12-07T12:03:56;100616.88;;;7.69;77.93
5812;BME280;2932;52.400;9.558;2022-12-07T12:06:28;100603.00;;;7.48;77.34
5812;BME280;2932;52.400;9.558;2022-12-07T12:12:23;100600.34;;;7.78;76.66
5812;BME280;2932;52.400;9.558;2022-12-07T12:20:50;100585.50;;;6.84;78.78
5812;BME280;2932;52.400;9.558;2022-12-07T12:23:22;100588.13;;;6.97;78.53
5812;BME280;2932;52.400;9.558;2022-12-07T12:25:58;100588.75;;;7.20;77.97
5812;BME280;2932;52.400;9.558;2022-12-07T12:33:30;100587.78;;;7.42;77.66
5812;BME280;2932;52.400;9.558;2022-12-07T12:39:18;100585.59;;;7.82;76.21
5812;BME280;2932;52.400;9.558;2022-12-07T12:54:14;100557.75;;;8.13;71.78
5812;BME280;2932;52.400;9.558;2022-12-07T12:56:46;100559.47;;;7.97;73.13
5812;BME280;2932;52.400;9.558;2022-12-07T12:59:23;100563.09;;;8.18;73.04
5812;BME280;2932;52.400;9.558;2022-12-07T13:01:54;100563.88;;;8.27;73.28
5812;BME280;2932;52.400;9.558;2022-12-07T13:06:45;100553.28;;;8.00;72.74
5812;BME280;2932;52.400;9.558;2022-12-07T13:09:26;100548.50;;;7.80;73.48
5812;BME280;2932;52.400;9.558;2022-12-07T13:12:03;100543.81;;;7.80;73.67
5812;BME280;2932;52.400;9.558;2022-12-07T13:20:07;100540.84;;;7.39;75.11
5812;BME280;2932;52.400;9.558;2022-12-07T13:25:29;100543.25;;;7.49;75.46
5812;BME280;2932;52.400;9.558;2022-12-07T13:28:16;100543.00;;;7.07;75.79
5812;BME280;2932;52.400;9.558;2022-12-07T13:31:33;100535.53;;;7.08;76.03
5812;BME280;2932;52.400;9.558;2022-12-07T13:33:34;100536.84;;;7.10;76.32
5812;BME280;2932;52.400;9.558;2022-12-07T13:35:59;100532.97;;;6.77;76.76
5812;BME280;2932;52.400;9.558;2022-12-07T13:38:29;100531.81;;;6.60;76.98
5812;BME280;2932;52.400;9.558;2022-12-07T13:41:15;100543.31;;;6.88;76.60
5812;BME280;2932;52.400;9.558;2022-12-07T13:43:49;100543.16;;;6.93;76.78
5812;BME280;2932;52.400;9.558;2022-12-07T13:46:15;100533.44;;;6.87;76.90
5812;BME280;2932;52.400;9.558;2022-12-07T13:48:48;100530.19;;;6.94;76.96
5812;BME280;2932;52.400;9.558;2022-12-07T13:51:24;100524.03;;;6.54;77.63
5812;BME280;2932;52.400;9.558;2022-12-07T13:53:54;100526.47;;;6.64;77.32
5812;BME280;2932;52.400;9.558;2022-12-07T13:56:22;100521.47;;;6.66;77.44
5812;BME280;2932;52.400;9.558;2022-12-07T13:58:47;100514.31;;;6.48;77.80
5812;BME280;2932;52.400;9.558;2022-12-07T14:01:13;100522.75;;;6.68;77.78
5812;BME280;2932;52.400;9.558;2022-12-07T14:03:39;100514.00;;;6.58;77.54
5812;BME280;2932;52.400;9.558;2022-12-07T14:08:45;100522.06;;;6.46;77.92
5812;BME280;2932;52.400;9.558;2022-12-07T14:11:20;100523.91;;;6.67;77.50
5812;BME280;2932;52.400;9.558;2022-12-07T14:13:59;100517.56;;;6.50;77.46
5812;BME280;2932;52.400;9.558;2022-12-07T14:16:35;100532.47;;;6.83;76.96
5812;BME280;2932;52.400;9.558;2022-12-07T14:19:04;100531.03;;;6.77;76.93
5812;BME280;2932;52.400;9.558;2022-12-07T14:21:33;100535.41;;;6.78;76.91
5812;BME280;2932;52.400;9.558;2022-12-07T14:24:11;100528.91;;;6.91;76.45
5812;BME280;2932;52.400;9.558;2022-12-07T14:26:40;100537.97;;;7.00;76.92
5812;BME280;2932;52.400;9.558;2022-12-07T14:31:50;100528.13;;;6.74;76.93
5812;BME280;2932;52.400;9.558;2022-12-07T14:34:16;100523.56;;;6.69;76.95
5812;BME280;2932;52.400;9.558;2022-12-07T14:36:44;100521.16;;;6.76;76.70
5812;BME280;2932;52.400;9.558;2022-12-07T14:39:09;100524.72;;;6.68;76.98
5812;BME280;2932;52.400;9.558;2022-12-07T14:41:35;100523.41;;;6.74;76.92
5812;BME280;2932;52.400;9.558;2022-12-07T14:44:15;100525.03;;;6.66;76.91
5812;BME280;2932;52.400;9.558;2022-12-07T14:46:41;100528.25;;;6.60;77.67
5812;BME280;2932;52.400;9.558;2022-12-07T14:49:06;100524.72;;;6.68;77.12
5812;BME280;2932;52.400;9.558;2022-12-07T14:51:32;100521.75;;;6.30;77.52
5812;BME280;2932;52.400;9.558;2022-12-07T14:53:58;100533.91;;;6.55;77.53
5812;BME280;2932;52.400;9.558;2022-12-07T14:56:25;100526.63;;;6.50;77.18
5812;BME280;2932;52.400;9.558;2022-12-07T14:58:50;100532.94;;;6.85;76.65
5812;BME280;2932;52.400;9.558;2022-12-07T15:01:15;100535.50;;;6.47;77.10
5812;BME280;2932;52.400;9.558;2022-12-07T15:03:41;100538.31;;;6.73;76.73
5812;BME280;2932;52.400;9.558;2022-12-07T15:06:06;100534.06;;;6.50;77.08
5812;BME280;2932;52.400;9.558;2022-12-07T15:08:32;100532.09;;;6.42;77.21
5812;BME280;2932;52.400;9.558;2022-12-07T15:10:57;100531.78;;;6.52;77.42
5812;BME280;2932;52.400;9.558;2022-12-07T15:13:23;100531.78;;;6.43;78.07
5812;BME280;2932;52.400;9.558;2022-12-07T15:16:19;100532.09;;;6.33;77.81
5812;BME280;2932;52.400;9.558;2022-12-07T15:18:45;100529.22;;;6.64;77.43
5812;BME280;2932;52.400;9.558;2022-12-07T15:21:14;100532.94;;;6.68;77.05
5812;BME280;2932;52.400;9.558;2022-12-07T15:23:40;100529.97;;;6.21;78.09
5812;BME280;2932;52.400;9.558;2022-12-07T15:26:05;100527.88;;;6.27;77.55
5812;BME280;2932;52.400;9.558;2022-12-07T15:28:31;100529.66;;;6.31;78.11
5812;BME280;2932;52.400;9.558;2022-12-07T15:30:56;100528.63;;;6.10;78.41
5812;BME280;2932;52.400;9.558;2022-12-07T15:33:21;100524.59;;;6.16;78.11
5812;BME280;2932;52.400;9.558;2022-12-07T15:35:46;100528.06;;;6.48;77.74
5812;BME280;2932;52.400;9.558;2022-12-07T15:38:12;100530.81;;;6.48;77.68
5812;BME280;2932;52.400;9.558;2022-12-07T15:40:37;100529.41;;;6.67;77.40
5812;BME280;2932;52.400;9.558;2022-12-07T15:43:05;100528.22;;;6.34;77.65
5812;BME280;2932;52.400;9.558;2022-12-07T15:45:51;100522.81;;;6.12;78.37
5812;BME280;2932;52.400;9.558;2022-12-07T15:48:16;100524.66;;;6.33;77.79